createdAt,value
2023-01-26T00:04:43.037Z,17.60
2023-01-26T00:16:43.493Z,18.10
2023-01-26T00:28:43.954Z,17.20
2023-01-26T00:40:44.410Z,18.00
2023-01-26T00:52:44.830Z,18.20
2023-01-26T01:04:45.290Z,18.50
2023-01-26T01:16:45.739Z,18.10
2023-01-26T01:28:46.264Z,19.10
2023-01-26T01:40:46.673Z,18.40
2023-01-26T01:52:47.116Z,18.60
2023-01-26T02:04:47.587Z,19.00
2023-01-26T02:16:48.046Z,19.60
2023-01-26T02:28:48.489Z,18.90
2023-01-26T02:40:48.953Z,18.70
2023-01-26T02:52:49.353Z,18.60
2023-01-26T03:04:49.799Z,17.60
2023-01-26T03:16:50.266Z,19.80
2023-01-26T03:28:50.733Z,19.30
2023-01-26T03:40:51.165Z,21.50
2023-01-26T03:52:51.656Z,21.40
2023-01-26T04:04:52.104Z,20.40
2023-01-26T04:16:52.578Z,20.40
2023-01-26T04:28:52.956Z,22.10
2023-01-26T04:40:53.442Z,20.90
2023-01-26T04:52:53.904Z,19.80
2023-01-26T05:04:54.329Z,19.60
2023-01-26T05:16:54.759Z,20.90
2023-01-26T05:28:55.239Z,24.50
2023-01-26T05:40:55.714Z,25.10
2023-01-26T05:52:56.178Z,23.60
2023-01-26T06:04:56.611Z,22.50
2023-01-26T06:16:57.053Z,21.20
2023-01-26T06:28:57.446Z,22.10
2023-01-26T06:40:57.933Z,22.30
2023-01-26T06:52:58.360Z,22.10
2023-01-26T07:04:58.803Z,21.60
2023-01-26T07:16:59.294Z,22.10
2023-01-26T07:28:59.745Z,24.50
2023-01-26T07:41:00.330Z,22.60
2023-01-26T07:53:00.607Z,21.40
2023-01-26T08:05:01.053Z,21.30
2023-01-26T08:17:01.567Z,21.90
2023-01-26T08:29:02.000Z,21.20
2023-01-26T08:41:02.435Z,20.50
2023-01-26T08:53:02.910Z,20.00
2023-01-26T09:05:03.382Z,22.80
2023-01-26T09:17:03.779Z,18.40
2023-01-26T09:29:04.248Z,19.90
2023-01-26T09:41:04.739Z,19.10
2023-01-26T09:53:05.177Z,16.20
2023-01-26T10:05:05.611Z,16.00
2023-01-26T10:17:06.051Z,16.00
2023-01-26T10:29:06.503Z,15.80
2023-01-26T10:41:06.977Z,15.90
2023-01-26T10:53:07.413Z,15.00
2023-01-26T11:05:07.905Z,16.60
2023-01-26T11:17:08.292Z,14.80
2023-01-26T11:29:08.912Z,16.40
2023-01-26T11:41:09.207Z,16.40
2023-01-26T11:53:09.676Z,15.60
2023-01-26T12:05:10.624Z,16.10
2023-01-26T12:17:18.141Z,17.10
2023-01-26T12:29:11.035Z,16.70
2023-01-26T12:41:11.486Z,18.80
2023-01-26T12:53:11.928Z,18.80
2023-01-26T13:05:12.378Z,19.80
2023-01-26T13:17:12.846Z,29.80
2023-01-26T13:29:13.283Z,24.80
2023-01-26T13:41:13.729Z,25.70
2023-01-26T13:53:14.199Z,36.30
2023-01-26T14:05:14.626Z,27.30
2023-01-26T14:17:15.079Z,25.40
2023-01-26T14:29:15.569Z,24.20
2023-01-26T14:41:15.978Z,23.90
2023-01-26T14:53:16.429Z,23.70
2023-01-26T15:05:16.846Z,24.60
2023-01-26T15:17:17.324Z,24.30
2023-01-26T15:29:17.831Z,26.80
2023-01-26T15:41:18.248Z,26.50
2023-01-26T15:53:18.701Z,31.00
2023-01-26T16:05:19.168Z,33.90
2023-01-26T16:17:19.614Z,31.00
2023-01-26T16:29:20.080Z,31.80
2023-01-26T16:41:20.488Z,38.80
2023-01-26T16:53:20.959Z,38.40
2023-01-26T17:05:21.426Z,39.80
2023-01-26T17:17:21.840Z,33.80
2023-01-26T17:29:22.350Z,31.10
2023-01-26T17:41:22.787Z,30.30
2023-01-26T17:53:23.257Z,30.00
2023-01-26T18:05:23.683Z,31.70
2023-01-26T18:17:24.130Z,32.50
2023-01-26T18:29:24.571Z,37.30
2023-01-26T18:41:25.048Z,34.80
2023-01-26T18:53:25.463Z,33.90
2023-01-26T19:05:25.893Z,34.60
2023-01-26T19:17:26.396Z,32.00
2023-01-26T19:29:26.874Z,35.40
2023-01-26T19:41:27.314Z,30.20
2023-01-26T19:53:27.723Z,29.90
2023-01-26T20:05:28.215Z,30.80
2023-01-26T20:17:28.677Z,28.60
2023-01-26T20:29:29.071Z,28.40
2023-01-26T20:41:29.605Z,26.70
2023-01-26T20:53:30.065Z,28.10
2023-01-26T21:05:30.493Z,25.60
2023-01-26T21:17:30.942Z,25.50
2023-01-26T21:29:31.375Z,25.30
2023-01-26T21:41:31.863Z,25.20
2023-01-26T21:53:32.262Z,23.90
2023-01-26T22:05:32.763Z,23.60
2023-01-26T22:17:33.190Z,20.60
2023-01-26T22:29:33.628Z,12.60
2023-01-26T22:41:34.087Z,12.30
2023-01-26T22:53:34.523Z,14.10
